Time;durP1;ratioP1;P1;durP2;ratioP2;P2;SDS_P1;SDS_P2;PMS_P1;PMS_P2;Temp;Humidity;BMP_temperature;BMP_pressure;BME280_temperature;BME280_humidity;BME280_pressure;Samples;Min_cycle;Max_cycle;Signal;HPM_P1;HPM_P2
2023/03/20 00:01:29;;;;;;;31.63;25.85;;;13.60;66.60;;;;;;5053440;28;20025;-69
2023/03/20 00:03:56;;;;;;;36.25;28.00;;;13.50;67.00;;;;;;5053198;28;20033;-62
2023/03/20 00:06:30;;;;;;;33.65;25.85;;;13.30;67.60;;;;;;5053050;28;20025;-65
2023/03/20 00:08:59;;;;;;;31.30;25.05;;;13.20;67.70;;;;;;5053132;28;20463;-64
2023/03/20 00:11:29;;;;;;;27.52;22.55;;;13.20;67.70;;;;;;5053345;28;20060;-66
2023/03/20 00:13:58;;;;;;;27.98;22.85;;;13.30;67.50;;;;;;5052869;28;20017;-64
2023/03/20 00:16:27;;;;;;;26.08;21.15;;;13.20;68.00;;;;;;5052804;28;20020;-64
2023/03/20 00:18:55;;;;;;;25.42;19.88;;;13.20;68.90;;;;;;5053073;28;20017;-66
2023/03/20 00:21:21;;;;;;;27.35;21.92;;;13.20;67.90;;;;;;5052961;28;20048;-69
2023/03/20 00:23:47;;;;;;;27.23;21.95;;;13.30;68.10;;;;;;5052943;28;20475;-64
2023/03/20 00:26:18;;;;;;;27.88;22.95;;;13.10;68.50;;;;;;5053077;28;20020;-65
2023/03/20 00:28:48;;;;;;;25.50;21.20;;;12.90;69.20;;;;;;5052851;28;20525;-68
2023/03/20 00:31:25;;;;;;;22.40;18.73;;;12.90;69.80;;;;;;5052889;28;20128;-62
2023/03/20 00:33:56;;;;;;;24.10;18.75;;;13.00;69.40;;;;;;5052878;28;20019;-66
2023/03/20 00:36:22;;;;;;;19.67;17.15;;;13.10;68.80;;;;;;5052626;28;20120;-66
2023/03/20 00:38:48;;;;;;;22.52;18.98;;;13.20;68.50;;;;;;5052797;28;20021;-66
2023/03/20 00:41:15;;;;;;;19.42;16.95;;;13.20;67.60;;;;;;5053155;28;20013;-60
2023/03/20 00:43:41;;;;;;;30.92;23.48;;;13.30;67.10;;;;;;5056608;28;20029;-66
2023/03/20 00:46:12;;;;;;;34.80;27.35;;;13.30;67.40;;;;;;5056473;28;20119;-67
2023/03/20 00:48:40;;;;;;;28.63;23.63;;;13.00;68.50;;;;;;5056424;28;20525;-66
2023/03/20 00:51:06;;;;;;;26.00;21.75;;;12.90;69.00;;;;;;5056745;28;20246;-66
2023/03/20 00:53:32;;;;;;;28.10;21.55;;;12.90;68.80;;;;;;5056420;28;20120;-65
2023/03/20 00:55:58;;;;;;;26.65;21.85;;;13.00;68.30;;;;;;5056318;28;20025;-66
2023/03/20 00:58:24;;;;;;;23.17;19.67;;;13.00;69.10;;;;;;5056291;28;20083;-63
2023/03/20 01:00:50;;;;;;;23.17;18.80;;;12.90;69.30;;;;;;5056309;28;20476;-66
2023/03/20 01:03:22;;;;;;;21.58;17.75;;;12.90;69.00;;;;;;5056345;28;20044;-63
2023/03/20 01:05:49;;;;;;;23.65;18.85;;;12.90;69.50;;;;;;5056240;28;20020;-59
2023/03/20 01:08:19;;;;;;;20.13;17.08;;;12.90;69.60;;;;;;5056362;28;20387;-65
2023/03/20 01:10:47;;;;;;;19.60;16.70;;;12.80;69.90;;;;;;5056258;28;20017;-69
2023/03/20 01:13:32;;;;;;;20.90;17.00;;;12.80;69.70;;;;;;5055990;28;20047;-64
2023/03/20 01:15:58;;;;;;;18.85;15.00;;;12.80;69.90;;;;;;5056273;28;20378;-64
2023/03/20 01:18:25;;;;;;;21.88;16.65;;;12.70;69.80;;;;;;5055904;28;20072;-67
2023/03/20 01:20:52;;;;;;;36.08;25.55;;;12.80;69.90;;;;;;5056245;28;20087;-62
2023/03/20 01:23:18;;;;;;;34.15;26.65;;;12.70;69.70;;;;;;5055938;28;20040;-62
2023/03/20 01:25:44;;;;;;;27.17;20.42;;;12.60;70.50;;;;;;5055762;28;20017;-68
2023/03/20 01:28:19;;;;;;;37.30;29.33;;;12.60;70.90;;;;;;5055897;28;20025;-67
2023/03/20 01:30:46;;;;;;;43.33;33.00;;;12.70;70.10;;;;;;5055711;28;20032;-59
2023/03/20 01:33:30;;;;;;;32.30;24.77;;;12.60;70.30;;;;;;5055687;28;20471;-64
2023/03/20 01:35:56;;;;;;;29.60;22.98;;;12.60;70.30;;;;;;5055504;28;20055;-64
2023/03/20 01:38:26;;;;;;;29.05;23.45;;;12.70;69.70;;;;;;5055365;28;20043;-63
2023/03/20 01:41:00;;;;;;;31.10;24.02;;;12.70;69.40;;;;;;5055668;28;20052;-67
2023/03/20 01:43:27;;;;;;;28.58;21.88;;;12.60;69.90;;;;;;5055458;28;20108;-66
2023/03/20 01:46:02;;;;;;;24.02;19.63;;;12.60;71.50;;;;;;5055333;28;20112;-67
2023/03/20 01:48:55;;;;;;;23.60;18.27;;;12.60;69.70;;;;;;5055304;28;20028;-65
2023/03/20 01:51:28;;;;;;;24.77;20.00;;;12.70;69.00;;;;;;5055109;28;20038;-66
2023/03/20 01:54:00;;;;;;;20.73;17.30;;;12.60;68.70;;;;;;5054631;28;20040;-62
2023/03/20 01:56:29;;;;;;;22.30;18.52;;;12.60;69.90;;;;;;5055135;28;20487;-68
2023/03/20 01:59:04;;;;;;;21.70;17.33;;;12.70;69.40;;;;;;5055521;28;20047;-67
2023/03/20 02:01:30;;;;;;;24.70;18.95;;;12.70;69.10;;;;;;5055039;28;20541;-64
2023/03/20 02:03:56;;;;;;;23.23;18.73;;;12.60;69.00;;;;;;5055086;28;20056;-61
2023/03/20 02:06:24;;;;;;;37.60;29.85;;;12.50;69.30;;;;;;5054999;28;20028;-64
2023/03/20 02:08:52;;;;;;;36.75;28.70;;;12.40;71.60;;;;;;5055050;28;20045;-60
2023/03/20 02:11:22;;;;;;;28.75;24.08;;;12.20;72.60;;;;;;5054992;28;20021;-63
2023/03/20 02:13:50;;;;;;;25.45;21.33;;;12.10;73.20;;;;;;5054803;28;20082;-67
2023/03/20 02:16:17;;;;;;;24.85;20.42;;;12.20;74.60;;;;;;5054968;28;20029;-69
2023/03/20 02:18:44;;;;;;;22.05;17.98;;;12.20;72.60;;;;;;5054909;28;20055;-67
2023/03/20 02:21:29;;;;;;;19.80;16.15;;;12.30;72.60;;;;;;5055112;28;20040;-64
2023/03/20 02:23:57;;;;;;;18.05;15.40;;;12.30;71.00;;;;;;5054790;28;20029;-66
2023/03/20 02:26:23;;;;;;;16.00;13.90;;;12.40;70.10;;;;;;5054604;28;20053;-69
2023/03/20 02:29:27;;;;;;;15.38;13.73;;;12.40;70.10;;;;;;5054554;28;20049;-67
2023/03/20 02:32:21;;;;;;;18.45;14.40;;;12.50;69.60;;;;;;5054903;28;20067;-63
2023/03/20 02:35:05;;;;;;;16.42;13.77;;;12.40;69.30;;;;;;5054447;28;20021;-64
2023/03/20 02:37:56;;;;;;;28.27;23.02;;;12.40;69.30;;;;;;5054465;28;20100;-65
2023/03/20 02:40:27;;;;;;;34.15;27.08;;;12.20;71.00;;;;;;5054176;28;20025;-61
2023/03/20 02:43:01;;;;;;;26.45;21.92;;;12.00;72.70;;;;;;5054393;28;20031;-63
2023/03/20 02:45:47;;;;;;;32.85;23.35;;;12.00;73.00;;;;;;5054301;28;20116;-65
2023/03/20 02:48:53;;;;;;;26.38;22.10;;;12.10;72.60;;;;;;5054260;28;20017;-63
2023/03/20 02:51:30;;;;;;;24.95;20.52;;;12.20;72.60;;;;;;5054143;28;20375;-67
2023/03/20 02:54:06;;;;;;;25.75;21.17;;;12.20;74.10;;;;;;5054223;28;20025;-66
2023/03/20 02:56:37;;;;;;;28.05;22.13;;;12.20;73.10;;;;;;5054256;28;20049;-63
2023/03/20 02:59:41;;;;;;;26.48;21.00;;;12.30;72.20;;;;;;5054126;28;20391;-64
2023/03/20 03:02:14;;;;;;;27.02;21.25;;;12.20;71.10;;;;;;5053464;28;20091;-66
2023/03/20 03:05:03;;;;;;;29.58;23.58;;;12.20;71.40;;;;;;5053656;28;20029;-66
2023/03/20 03:07:32;;;;;;;21.73;18.58;;;12.00;73.10;;;;;;5054081;28;20021;-64
2023/03/20 03:10:36;;;;;;;23.52;19.15;;;11.90;73.40;;;;;;5054159;28;20025;-67
2023/03/20 03:13:05;;;;;;;19.63;15.80;;;12.00;73.30;;;;;;5053762;28;20514;-65
2023/03/20 03:15:36;;;;;;;18.75;14.93;;;12.00;72.50;;;;;;5053975;28;20107;-63
2023/03/20 03:18:05;;;;;;;24.23;19.70;;;12.10;72.20;;;;;;5053960;28;20021;-62
2023/03/20 03:20:36;;;;;;;23.10;18.83;;;12.10;73.50;;;;;;5053672;28;20025;-64
2023/03/20 03:23:02;;;;;;;22.95;18.85;;;11.90;73.70;;;;;;5053947;28;20032;-64
2023/03/20 03:25:38;;;;;;;21.42;16.90;;;11.70;74.60;;;;;;5053668;28;20025;-65
2023/03/20 03:28:21;;;;;;;19.98;16.85;;;11.80;75.80;;;;;;5053592;28;20017;-59
2023/03/20 03:30:48;;;;;;;19.80;14.70;;;11.80;75.60;;;;;;5053726;28;20021;-67
2023/03/20 03:33:20;;;;;;;16.67;13.52;;;11.80;74.70;;;;;;5053489;28;20033;-70
2023/03/20 03:35:47;;;;;;;14.85;12.98;;;11.90;73.50;;;;;;5053310;28;20128;-63
2023/03/20 03:38:51;;;;;;;13.95;12.43;;;11.90;72.80;;;;;;5053347;28;20094;-69
2023/03/20 03:41:17;;;;;;;14.35;12.05;;;12.00;72.30;;;;;;5051787;28;20040;-67
2023/03/20 03:43:59;;;;;;;16.50;13.57;;;12.00;72.50;;;;;;5053386;28;20029;-66
2023/03/20 03:47:03;;;;;;;37.63;28.58;;;12.00;72.30;;;;;;5053155;28;20376;-65
2023/03/20 03:49:36;;;;;;;29.92;23.35;;;11.80;74.00;;;;;;5051020;28;20453;-67
2023/03/20 03:52:07;;;;;;;22.73;19.20;;;11.60;75.70;;;;;;5052850;28;20044;-64
2023/03/20 03:54:52;;;;;;;33.28;24.70;;;11.50;76.70;;;;;;5053223;28;20109;-68
2023/03/20 03:57:24;;;;;;;37.45;27.52;;;11.60;76.00;;;;;;5053212;28;20076;-61
2023/03/20 03:59:51;;;;;;;34.67;25.77;;;11.70;75.80;;;;;;5053192;28;20025;-66
2023/03/20 04:02:19;;;;;;;30.30;23.05;;;11.70;76.00;;;;;;5052815;28;20040;-64
2023/03/20 04:04:48;;;;;;;25.42;20.52;;;11.60;77.30;;;;;;5053593;28;20040;-63
2023/03/20 04:07:14;;;;;;;20.50;18.27;;;11.50;77.30;;;;;;5053073;28;20017;-63
2023/03/20 04:09:40;;;;;;;23.90;19.50;;;11.50;76.90;;;;;;5053092;28;20021;-62
2023/03/20 04:12:17;;;;;;;23.50;18.45;;;11.50;77.20;;;;;;5053026;28;20484;-63
2023/03/20 04:14:43;;;;;;;19.85;17.38;;;11.50;77.90;;;;;;5053404;28;20514;-66
2023/03/20 04:17:08;;;;;;;21.60;17.67;;;11.40;78.30;;;;;;5054769;28;20128;-67
2023/03/20 04:19:34;;;;;;;19.55;17.45;;;11.30;79.50;;;;;;5057108;28;20066;-66
2023/03/20 04:22:00;;;;;;;22.17;17.20;;;11.20;80.50;;;;;;5056897;28;20036;-60
2023/03/20 04:24:25;;;;;;;17.92;15.23;;;11.10;81.80;;;;;;5056922;28;20035;-68
2023/03/20 04:26:51;;;;;;;17.42;15.32;;;11.00;82.90;;;;;;5057170;28;20096;-63
2023/03/20 04:29:17;;;;;;;18.48;14.50;;;11.00;82.90;;;;;;5056815;28;20368;-68
2023/03/20 04:31:42;;;;;;;15.38;12.95;;;11.00;83.00;;;;;;5056907;28;20031;-63
2023/03/20 04:34:08;;;;;;;15.93;12.68;;;11.10;83.20;;;;;;5056734;28;20029;-61
2023/03/20 04:36:34;;;;;;;13.90;12.23;;;11.20;82.10;;;;;;5056595;28;20059;-64
2023/03/20 04:39:00;;;;;;;16.25;13.13;;;11.20;81.70;;;;;;5056988;28;20025;-69
2023/03/20 04:41:25;;;;;;;21.85;17.35;;;11.20;80.80;;;;;;5056528;28;20494;-61
2023/03/20 04:43:51;;;;;;;19.17;16.45;;;11.10;82.50;;;;;;5056491;28;20061;-64
2023/03/20 04:46:17;;;;;;;16.95;15.00;;;10.90;84.10;;;;;;5056795;28;20020;-66
2023/03/20 04:48:42;;;;;;;18.80;15.50;;;10.80;85.00;;;;;;5056781;28;20035;-62
2023/03/20 04:51:08;;;;;;;16.30;14.27;;;10.70;85.60;;;;;;5056454;28;20021;-63
2023/03/20 04:53:34;;;;;;;18.58;15.30;;;10.80;86.10;;;;;;5056621;28;20032;-64
2023/03/20 04:56:00;;;;;;;20.75;15.30;;;10.80;84.50;;;;;;5056446;28;20441;-67
2023/03/20 04:58:25;;;;;;;17.38;14.98;;;10.80;85.30;;;;;;5056297;28;20035;-66
2023/03/20 05:00:51;;;;;;;16.05;13.35;;;10.80;85.80;;;;;;5056311;28;20048;-64
2023/03/20 05:03:17;;;;;;;15.68;13.45;;;10.70;86.00;;;;;;5056386;28;20078;-66
2023/03/20 05:05:42;;;;;;;15.85;13.32;;;10.80;85.60;;;;;;5056317;28;20519;-60
2023/03/20 05:08:08;;;;;;;14.70;11.57;;;10.90;85.30;;;;;;5056133;28;20067;-61
2023/03/20 05:10:34;;;;;;;15.02;12.00;;;10.90;85.70;;;;;;5056161;28;20025;-64
2023/03/20 05:13:00;;;;;;;13.73;12.13;;;11.00;84.10;;;;;;5056242;28;20104;-70
2023/03/20 05:15:25;;;;;;;16.77;13.50;;;11.00;84.10;;;;;;5056166;28;20017;-63
2023/03/20 05:17:51;;;;;;;24.27;17.38;;;11.00;82.10;;;;;;5055965;28;20104;-63
2023/03/20 05:20:17;;;;;;;50.20;35.05;;;11.10;81.90;;;;;;5055829;28;20051;-64
2023/03/20 05:22:43;;;;;;;42.15;32.83;;;10.90;84.10;;;;;;5056128;28;20424;-67
2023/03/20 05:25:08;;;;;;;56.80;44.13;;;10.80;86.40;;;;;;5055842;28;20468;-66
2023/03/20 05:27:34;;;;;;;49.00;38.78;;;10.70;86.90;;;;;;5055459;28;20092;-66
2023/03/20 05:30:00;;;;;;;49.85;38.75;;;10.70;88.00;;;;;;5055373;28;20032;-69
2023/03/20 05:32:25;;;;;;;55.47;43.15;;;10.80;88.10;;;;;;5055588;28;20112;-66
2023/03/20 05:34:51;;;;;;;44.88;36.78;;;10.90;86.90;;;;;;5055428;28;20017;-64
2023/03/20 05:37:17;;;;;;;43.85;35.42;;;10.90;86.90;;;;;;5055916;28;20021;-66
2023/03/20 05:39:43;;;;;;;36.53;30.98;;;11.00;87.40;;;;;;5055701;28;20460;-69
2023/03/20 05:42:08;;;;;;;37.25;30.98;;;11.10;86.20;;;;;;5055278;28;20383;-69
2023/03/20 05:44:34;;;;;;;42.58;34.63;;;11.30;86.20;;;;;;5055524;28;20017;-66
2023/03/20 05:47:00;;;;;;;41.97;33.97;;;11.40;83.70;;;;;;5055375;28;20021;-67
2023/03/20 05:49:25;;;;;;;35.55;29.73;;;11.50;82.40;;;;;;5055402;28;20031;-63
2023/03/20 05:51:51;;;;;;;34.92;29.02;;;11.60;83.40;;;;;;5055043;28;20017;-64
2023/03/20 05:54:17;;;;;;;33.85;28.85;;;11.70;81.70;;;;;;5055463;28;20088;-68
2023/03/20 05:56:42;;;;;;;33.78;27.95;;;11.70;80.90;;;;;;5054726;28;20021;-66
2023/03/20 05:59:09;;;;;;;55.35;42.28;;;11.90;80.30;;;;;;5054873;28;20495;-63
2023/03/20 06:01:35;;;;;;;54.90;41.60;;;12.00;80.60;;;;;;5054196;28;20025;-66
2023/03/20 06:04:01;;;;;;;40.80;34.40;;;11.90;80.00;;;;;;5054506;28;20029;-68
2023/03/20 06:06:27;;;;;;;57.90;45.53;;;11.90;80.90;;;;;;5055058;28;20025;-66
2023/03/20 06:08:53;;;;;;;68.65;51.80;;;12.00;80.00;;;;;;5055089;28;20094;-68
2023/03/20 06:11:20;;;;;;;86.45;67.50;;;12.00;79.60;;;;;;5054834;28;20029;-66
2023/03/20 06:13:45;;;;;;;90.50;69.75;;;12.00;80.00;;;;;;5055015;28;20387;-63
2023/03/20 06:16:11;;;;;;;76.00;61.58;;;11.90;79.90;;;;;;5054287;28;20021;-67
2023/03/20 06:18:38;;;;;;;100.40;77.43;;;11.90;79.80;;;;;;5054645;28;20383;-62
2023/03/20 06:21:04;;;;;;;82.55;68.75;;;12.10;79.20;;;;;;5053616;28;20025;-65
2023/03/20 06:23:30;;;;;;;75.50;61.08;;;12.50;79.00;;;;;;5054506;28;20383;-62
2023/03/20 06:25:56;;;;;;;74.55;60.15;;;14.00;75.70;;;;;;5054694;28;20027;-69
2023/03/20 06:28:21;;;;;;;71.45;56.35;;;15.70;70.40;;;;;;5054594;28;20022;-67
2023/03/20 06:30:52;;;;;;;72.50;54.92;;;17.20;64.80;;;;;;5054602;28;20131;-66
2023/03/20 06:33:18;;;;;;;75.20;56.88;;;18.00;59.80;;;;;;5054328;28;20468;-65
2023/03/20 06:35:45;;;;;;;69.97;55.40;;;18.70;58.60;;;;;;5054446;28;20045;-65
2023/03/20 06:38:11;;;;;;;71.75;55.03;;;19.30;55.40;;;;;;5054570;28;20437;-62
2023/03/20 06:40:36;;;;;;;63.70;51.45;;;20.00;53.10;;;;;;5052758;28;20078;-66
2023/03/20 06:43:02;;;;;;;59.28;49.13;;;20.80;52.10;;;;;;5053363;28;20387;-67
2023/03/20 06:45:28;;;;;;;57.75;45.90;;;21.70;51.80;;;;;;5054354;28;20017;-62
2023/03/20 06:47:55;;;;;;;46.97;39.50;;;22.50;48.30;;;;;;5054000;28;20048;-65
2023/03/20 06:50:21;;;;;;;37.33;33.35;;;23.00;46.40;;;;;;5053519;28;20029;-66
2023/03/20 06:52:47;;;;;;;34.05;29.55;;;23.30;44.20;;;;;;5054022;28;20032;-63
2023/03/20 06:55:13;;;;;;;30.75;27.63;;;23.80;43.70;;;;;;5053393;28;20478;-69
2023/03/20 06:57:38;;;;;;;27.98;24.02;;;24.20;43.00;;;;;;5052545;28;20049;-63
2023/03/20 07:00:06;;;;;;;23.20;20.80;;;24.40;41.90;;;;;;5052201;28;20017;-65
2023/03/20 07:02:32;;;;;;;27.65;24.75;;;24.60;42.40;;;;;;5052082;28;20391;-66
2023/03/20 07:04:58;;;;;;;25.25;22.40;;;24.80;41.60;;;;;;5052414;28;20042;-63
2023/03/20 07:07:23;;;;;;;24.08;21.65;;;24.60;41.20;;;;;;5052775;28;20029;-66
2023/03/20 07:09:49;;;;;;;23.27;20.77;;;24.50;41.60;;;;;;5052487;28;20025;-67
2023/03/20 07:12:18;;;;;;;21.90;19.70;;;24.90;40.40;;;;;;5053551;28;20123;-68
2023/03/20 07:14:45;;;;;;;19.73;17.73;;;25.20;39.90;;;;;;5053222;28;20032;-68
2023/03/20 07:17:12;;;;;;;21.05;18.85;;;25.30;39.20;;;;;;5053737;28;20052;-63
2023/03/20 07:19:38;;;;;;;22.50;20.23;;;25.80;39.60;;;;;;5053349;28;20471;-62
2023/03/20 07:22:06;;;;;;;22.50;20.20;;;26.10;38.20;;;;;;5053194;28;20495;-70
2023/03/20 07:24:33;;;;;;;23.33;21.05;;;26.40;38.00;;;;;;5044082;28;20022;-63
2023/03/20 07:27:01;;;;;;;21.73;19.42;;;26.70;37.20;;;;;;5032255;28;20175;-65
2023/03/20 07:29:27;;;;;;;22.95;20.75;;;26.90;37.00;;;;;;5038330;28;20081;-68
2023/03/20 07:31:53;;;;;;;25.40;22.90;;;27.20;36.40;;;;;;5051080;28;20029;-66
2023/03/20 07:34:19;;;;;;;28.90;25.90;;;27.80;36.10;;;;;;5047475;28;20061;-65
2023/03/20 07:36:44;;;;;;;25.98;23.48;;;28.30;35.70;;;;;;5050088;28;20579;-66
2023/03/20 07:39:12;;;;;;;23.42;21.13;;;28.30;35.10;;;;;;5049944;28;20025;-64
2023/03/20 07:41:38;;;;;;;23.20;20.85;;;28.10;35.00;;;;;;5051438;28;20099;-63
2023/03/20 07:44:04;;;;;;;23.50;21.10;;;28.00;34.70;;;;;;5050254;28;20598;-67
2023/03/20 07:46:30;;;;;;;24.40;21.92;;;27.60;34.80;;;;;;5051741;28;20183;-64
2023/03/20 07:48:57;;;;;;;21.65;19.52;;;27.40;34.70;;;;;;5050922;28;20025;-64
2023/03/20 07:51:23;;;;;;;25.73;23.23;;;27.60;34.70;;;;;;5049468;28;20450;-66
2023/03/20 07:53:48;;;;;;;22.00;19.90;;;27.80;35.10;;;;;;5047118;28;20024;-66
2023/03/20 07:56:14;;;;;;;21.05;19.00;;;27.90;34.80;;;;;;5033239;28;20018;-70
2023/03/20 07:58:40;;;;;;;21.45;19.30;;;27.40;35.40;;;;;;5044146;28;20032;-66
2023/03/20 08:01:06;;;;;;;21.75;19.48;;;27.20;34.50;;;;;;5044306;28;20029;-67
2023/03/20 08:03:32;;;;;;;22.75;20.35;;;26.70;35.20;;;;;;5044310;28;20043;-65
2023/03/20 08:05:58;;;;;;;22.38;20.13;;;26.00;34.80;;;;;;5045972;28;20111;-64
2023/03/20 08:08:24;;;;;;;21.65;19.45;;;25.30;35.80;;;;;;5042670;28;20132;-63
2023/03/20 08:10:50;;;;;;;22.17;19.40;;;25.40;35.90;;;;;;5034200;28;20028;-68
2023/03/20 08:13:16;;;;;;;20.25;18.08;;;25.30;36.20;;;;;;5043513;28;20041;-68
2023/03/20 08:15:47;;;;;;;18.27;16.40;;;25.30;36.70;;;;;;5042194;28;20466;-70
2023/03/20 08:18:13;;;;;;;18.77;16.77;;;24.90;37.50;;;;;;5040712;28;20025;-68
2023/03/20 08:20:43;;;;;;;18.52;16.67;;;24.80;37.70;;;;;;5039059;28;20032;-66
2023/03/20 08:23:09;;;;;;;16.95;15.35;;;25.00;37.20;;;;;;5040293;28;20061;-65
2023/03/20 08:25:37;;;;;;;19.52;17.73;;;25.20;36.40;;;;;;5041199;28;20048;-67
2023/03/20 08:28:03;;;;;;;16.52;14.82;;;24.70;37.70;;;;;;5039961;28;20029;-64
2023/03/20 08:30:41;;;;;;;16.95;15.35;;;24.80;37.30;;;;;;5033307;28;20029;-63
2023/03/20 08:33:07;;;;;;;24.13;21.65;;;25.20;36.40;;;;;;5034495;28;20053;-69
2023/03/20 08:35:43;;;;;;;23.83;21.23;;;25.50;36.20;;;;;;5036816;28;20475;-66
2023/03/20 08:38:13;;;;;;;18.85;16.95;;;25.70;36.20;;;;;;5053988;28;20112;-71
2023/03/20 08:40:44;;;;;;;17.00;15.20;;;25.60;35.90;;;;;;5042872;28;20064;-69
2023/03/20 08:43:10;;;;;;;14.07;12.55;;;25.80;35.80;;;;;;5034363;28;20025;-66
2023/03/20 08:45:44;;;;;;;13.05;11.75;;;26.20;35.10;;;;;;5037696;28;20087;-66
2023/03/20 08:48:10;;;;;;;13.20;11.82;;;26.60;34.70;;;;;;5036890;28;20348;-73
2023/03/20 08:50:46;;;;;;;12.40;11.20;;;27.00;34.60;;;;;;5037693;28;21369;-66
2023/03/20 08:53:13;;;;;;;13.55;12.25;;;27.30;34.90;;;;;;5033409;28;20025;-68
2023/03/20 08:55:49;;;;;;;18.40;16.17;;;27.50;34.50;;;;;;5037877;28;20030;-67
2023/03/20 08:58:16;;;;;;;15.80;14.20;;;27.60;35.20;;;;;;5037969;28;20017;-65
2023/03/20 09:00:46;;;;;;;14.38;12.98;;;27.30;35.00;;;;;;5038466;28;20033;-67
2023/03/20 09:03:14;;;;;;;15.60;14.10;;;27.30;35.20;;;;;;5036079;28;20064;-70
2023/03/20 09:05:47;;;;;;;14.90;13.35;;;27.00;35.70;;;;;;5033192;28;20120;-62
2023/03/20 09:08:13;;;;;;;15.30;13.68;;;26.50;35.40;;;;;;5042387;28;20433;-68
2023/03/20 09:10:45;;;;;;;14.20;12.80;;;26.10;35.70;;;;;;5043824;28;20086;-70
2023/03/20 09:13:24;;;;;;;14.27;12.88;;;25.70;37.10;;;;;;5037925;28;20041;-69
2023/03/20 09:15:50;;;;;;;12.38;11.25;;;25.10;37.30;;;;;;5032181;28;20052;-66
2023/03/20 09:18:16;;;;;;;12.85;11.75;;;25.20;37.20;;;;;;5033829;28;20029;-68
2023/03/20 09:20:47;;;;;;;13.88;12.50;;;25.50;38.10;;;;;;5046650;28;20036;-62
2023/03/20 09:23:13;;;;;;;13.32;11.93;;;25.60;35.70;;;;;;5043029;28;20032;-63
2023/03/20 09:25:46;;;;;;;11.88;10.57;;;25.40;36.70;;;;;;5036572;28;20025;-64
2023/03/20 09:28:12;;;;;;;11.40;10.20;;;25.20;36.70;;;;;;5039719;28;20419;-66
2023/03/20 09:30:46;;;;;;;10.73;9.68;;;25.00;36.50;;;;;;5045980;28;20024;-71
2023/03/20 09:33:13;;;;;;;10.10;9.20;;;25.10;36.00;;;;;;5038586;28;20049;-67
2023/03/20 09:35:43;;;;;;;10.00;9.13;;;25.20;36.60;;;;;;5045247;28;20046;-66
2023/03/20 09:38:11;;;;;;;9.48;8.57;;;25.20;35.80;;;;;;5043066;28;20048;-66
2023/03/20 09:40:58;;;;;;;8.35;7.63;;;25.10;35.50;;;;;;5041662;28;20034;-72
2023/03/20 09:43:48;;;;;;;8.45;7.55;;;25.20;36.90;;;;;;5041202;28;20037;-62
2023/03/20 09:46:32;;;;;;;7.35;6.70;;;25.40;35.90;;;;;;5040384;28;20021;-64
2023/03/20 09:49:18;;;;;;;7.35;6.65;;;25.40;35.00;;;;;;5041578;28;20078;-66
2023/03/20 09:51:57;;;;;;;5.80;5.30;;;25.60;36.10;;;;;;5041202;28;20036;-69
2023/03/20 09:54:23;;;;;;;5.72;5.22;;;25.60;34.60;;;;;;5029355;28;20025;-69
2023/03/20 09:56:51;;;;;;;4.30;3.97;;;25.50;35.10;;;;;;5030031;28;20025;-63
2023/03/20 09:59:19;;;;;;;4.20;3.80;;;25.50;36.40;;;;;;5037026;28;20013;-66
2023/03/20 10:01:51;;;;;;;3.95;3.60;;;25.60;36.10;;;;;;5049422;28;20408;-67
2023/03/20 10:04:18;;;;;;;3.90;3.60;;;26.00;37.00;;;;;;5051158;28;20029;-70
2023/03/20 10:06:45;;;;;;;4.00;3.70;;;26.10;37.60;;;;;;5049664;28;20024;-64
2023/03/20 10:09:21;;;;;;;4.82;4.38;;;26.30;35.50;;;;;;5051066;28;20479;-66
2023/03/20 10:11:53;;;;;;;4.25;3.95;;;26.60;36.40;;;;;;5050607;28;20572;-65
2023/03/20 10:14:59;;;;;;;4.60;4.30;;;26.60;37.80;;;;;;5048297;28;20028;-68
2023/03/20 10:17:51;;;;;;;5.50;5.07;;;26.60;32.80;;;;;;5050071;28;20609;-63
2023/03/20 10:20:38;;;;;;;5.03;4.60;;;26.70;36.30;;;;;;5051226;28;20021;-66
2023/03/20 10:23:19;;;;;;;6.07;5.57;;;26.90;36.00;;;;;;5052920;28;20121;-62
2023/03/20 10:25:55;;;;;;;6.00;5.40;;;26.80;35.40;;;;;;5051002;28;20021;-63
2023/03/20 10:28:40;;;;;;;6.63;6.03;;;26.80;35.40;;;;;;5051791;28;20368;-65
2023/03/20 10:31:35;;;;;;;5.65;5.22;;;26.70;36.50;;;;;;5053055;28;20025;-71
2023/03/20 10:34:34;;;;;;;6.40;5.88;;;26.80;35.00;;;;;;5054118;28;20124;-60
2023/03/20 10:37:17;;;;;;;5.28;4.88;;;27.30;33.10;;;;;;5053995;28;20751;-62
2023/03/20 10:40:01;;;;;;;6.60;6.10;;;27.60;33.90;;;;;;5054104;28;20029;-65
2023/03/20 10:42:36;;;;;;;6.72;6.13;;;27.70;32.80;;;;;;5054742;28;20442;-72
2023/03/20 10:45:17;;;;;;;6.20;5.63;;;27.80;32.10;;;;;;5053566;28;20027;-71
2023/03/20 10:47:47;;;;;;;6.72;6.03;;;28.10;33.50;;;;;;5054204;28;20027;-66
2023/03/20 10:50:27;;;;;;;7.63;6.68;;;28.20;34.60;;;;;;5053293;28;20056;-69
2023/03/20 10:52:55;;;;;;;6.43;5.78;;;28.20;36.40;;;;;;5052050;28;20036;-64
2023/03/20 10:55:28;;;;;;;8.05;6.20;;;28.30;35.60;;;;;;5051486;28;20027;-72
2023/03/20 10:58:24;;;;;;;5.97;5.47;;;28.30;36.60;;;;;;5053283;28;20041;-71
2023/03/20 11:00:55;;;;;;;6.57;6.03;;;28.00;32.00;;;;;;5052629;28;20112;-66
2023/03/20 11:03:30;;;;;;;6.45;5.82;;;27.60;33.50;;;;;;5052305;28;20025;-65
2023/03/20 11:06:03;;;;;;;6.53;6.03;;;27.50;32.30;;;;;;5052024;28;20025;-69
2023/03/20 11:08:41;;;;;;;6.53;6.03;;;27.60;33.00;;;;;;5053650;28;20028;-65
2023/03/20 11:11:08;;;;;;;6.22;5.57;;;27.60;37.50;;;;;;5053896;28;20025;-71
2023/03/20 11:13:37;;;;;;;5.85;5.35;;;27.80;34.40;;;;;;5051543;28;20391;-63
2023/03/20 11:16:24;;;;;;;5.15;4.75;;;28.20;32.80;;;;;;5053519;28;20050;-68
2023/03/20 11:18:52;;;;;;;5.15;4.75;;;28.30;35.00;;;;;;5052881;28;20032;-65
2023/03/20 11:21:25;;;;;;;5.22;4.80;;;28.20;34.70;;;;;;5052261;28;20082;-62
2023/03/20 11:23:56;;;;;;;6.20;5.70;;;28.20;32.60;;;;;;5052179;28;20047;-72
2023/03/20 11:26:38;;;;;;;6.82;6.20;;;27.80;30.20;;;;;;5051921;28;20026;-66
2023/03/20 11:29:28;;;;;;;12.27;10.98;;;27.00;31.30;;;;;;5052707;28;20659;-63
2023/03/20 11:31:54;;;;;;;6.50;5.90;;;26.40;32.20;;;;;;5051439;28;20033;-70
2023/03/20 11:34:26;;;;;;;6.10;5.50;;;26.10;31.60;;;;;;5050210;28;20031;-67
2023/03/20 11:36:57;;;;;;;5.27;4.87;;;26.30;30.60;;;;;;5045048;28;20041;-68
2023/03/20 11:39:31;;;;;;;5.05;4.65;;;26.80;35.50;;;;;;5041713;28;20775;-65
2023/03/20 11:41:58;;;;;;;5.15;4.75;;;27.10;31.80;;;;;;5030041;28;20036;-60
2023/03/20 11:44:31;;;;;;;4.80;4.40;;;26.70;32.70;;;;;;5035215;28;20044;-64
2023/03/20 11:47:00;;;;;;;;;;;26.60;30.80;;;;;;5040973;28;20084;-62
2023/03/20 11:49:26;;;;;;;4.55;4.20;;;26.80;30.80;;;;;;5036045;28;19915;-68
2023/03/20 11:51:55;;;;;;;4.80;4.30;;;27.10;31.10;;;;;;5037022;28;20025;-66
2023/03/20 11:54:23;;;;;;;4.97;4.45;;;27.30;30.10;;;;;;5038070;28;20076;-70
2023/03/20 11:56:58;;;;;;;4.32;4.03;;;27.50;30.20;;;;;;5033884;28;20030;-66
2023/03/20 11:59:30;;;;;;;4.85;4.05;;;27.90;30.30;;;;;;5041000;28;20067;-66
2023/03/20 12:01:57;;;;;;;3.42;3.13;;;28.20;32.80;;;;;;5041524;28;20032;-67
2023/03/20 12:04:29;;;;;;;2.47;2.28;;;28.30;31.20;;;;;;5052607;28;20388;-71
2023/03/20 12:07:05;;;;;;;3.20;2.90;;;28.60;33.00;;;;;;5045921;28;20087;-71
2023/03/20 12:09:58;;;;;;;3.15;2.50;;;28.00;31.20;;;;;;5035828;28;20040;-69
2023/03/20 12:12:42;;;;;;;3.35;2.65;;;28.10;29.50;;;;;;5039821;28;20521;-65
2023/03/20 12:15:17;;;;;;;2.40;2.20;;;27.90;30.40;;;;;;5034277;28;20021;-66
2023/03/20 12:18:20;;;;;;;2.78;2.58;;;27.80;31.90;;;;;;5032946;28;20029;-67
2023/03/20 12:21:06;;;;;;;2.33;2.13;;;27.70;29.00;;;;;;5039819;28;20028;-62
2023/03/20 12:23:50;;;;;;;2.33;2.13;;;27.50;30.80;;;;;;5036032;28;20037;-69
2023/03/20 12:26:31;;;;;;;2.70;2.50;;;27.80;29.30;;;;;;5033630;28;20044;-64
2023/03/20 12:29:03;;;;;;;2.30;2.10;;;28.30;28.60;;;;;;5032507;28;20132;-68
2023/03/20 12:31:36;;;;;;;2.28;2.17;;;28.80;28.30;;;;;;5032116;28;20030;-69
2023/03/20 12:34:26;;;;;;;2.47;2.28;;;29.00;30.10;;;;;;5045766;28;20016;-64
2023/03/20 12:36:56;;;;;;;2.25;2.10;;;28.70;29.60;;;;;;5038604;28;20045;-60
2023/03/20 12:39:46;;;;;;;3.38;2.10;;;28.20;30.70;;;;;;5036724;28;20064;-74
2023/03/20 12:42:26;;;;;;;2.03;1.92;;;27.90;29.90;;;;;;5044906;28;20483;-65
2023/03/20 12:45:02;;;;;;;2.05;1.95;;;27.70;28.80;;;;;;5039744;28;20439;-65
2023/03/20 12:47:35;;;;;;;1.70;1.60;;;27.80;29.10;;;;;;5041070;28;20033;-69
2023/03/20 12:50:31;;;;;;;1.80;1.70;;;28.00;29.80;;;;;;5043256;28;20029;-73
2023/03/20 12:53:29;;;;;;;2.17;1.80;;;28.10;31.10;;;;;;5053919;28;20044;-69
2023/03/20 12:56:16;;;;;;;1.50;1.40;;;27.90;32.50;;;;;;5049272;28;20028;-71